Time;durP1;ratioP1;P1;durP2;ratioP2;P2;SDS_P1;SDS_P2;PMS_P1;PMS_P2;Temp;Humidity;BMP_temperature;BMP_pressure;BME280_temperature;BME280_humidity;BME280_pressure;Samples;Min_cycle;Max_cycle;Signal;HPM_P1;HPM_P2
2022/11/20 00:00:06;;;;;;;7.57;3.17;;;;;;;3.72;100.00;94915.88;4993751;28;20034;-73
2022/11/20 00:02:51;;;;;;;6.30;2.90;;;;;;;3.78;100.00;94917.53;4992647;28;20129;-72
2022/11/20 00:05:17;;;;;;;11.32;3.35;;;;;;;3.81;100.00;94919.66;4987661;28;20045;-72
2022/11/20 00:07:43;;;;;;;6.47;3.00;;;;;;;3.87;100.00;94918.69;4992796;28;20043;-73
2022/11/20 00:10:09;;;;;;;5.90;2.90;;;;;;;3.83;100.00;94912.38;4994070;28;20050;-72
2022/11/20 00:12:34;;;;;;;8.40;3.60;;;;;;;3.89;100.00;94916.63;4976299;28;20436;-72
2022/11/20 00:15:00;;;;;;;8.48;3.22;;;;;;;3.83;100.00;94922.78;4987799;28;20049;-72
2022/11/20 00:17:25;;;;;;;8.40;3.65;;;;;;;3.86;100.00;94927.50;4974374;28;20382;-72
2022/11/20 00:19:51;;;;;;;6.40;3.53;;;;;;;3.94;100.00;94929.72;4991730;28;20125;-72
2022/11/20 00:22:16;;;;;;;7.00;3.50;;;;;;;3.89;100.00;94921.81;4993489;28;20089;-71
2022/11/20 00:24:42;;;;;;;7.57;3.05;;;;;;;3.94;100.00;94921.91;4985374;28;20035;-72
2022/11/20 00:27:07;;;;;;;6.38;3.08;;;;;;;3.96;100.00;94927.63;4987908;28;20042;-72
2022/11/20 00:29:33;;;;;;;5.60;2.90;;;;;;;3.96;100.00;94925.03;4976006;28;20058;-72
2022/11/20 00:31:58;;;;;;;6.10;3.13;;;;;;;3.91;100.00;94930.19;4980510;28;20059;-72
2022/11/20 00:34:24;;;;;;;7.20;3.10;;;;;;;3.89;100.00;94927.03;4963089;28;20122;-72
2022/11/20 00:36:49;;;;;;;5.47;2.97;;;;;;;4.04;100.00;94926.44;4980456;28;20057;-72
2022/11/20 00:39:15;;;;;;;6.68;3.45;;;;;;;3.93;100.00;94933.34;4992937;28;20062;-72
2022/11/20 00:41:41;;;;;;;7.50;3.13;;;;;;;3.91;100.00;94929.41;4992173;28;20408;-72
2022/11/20 00:44:06;;;;;;;7.03;3.22;;;;;;;4.04;100.00;94934.25;4992885;28;20038;-72
2022/11/20 00:46:32;;;;;;;7.45;3.45;;;;;;;4.03;100.00;94939.72;4991990;28;20042;-72
2022/11/20 00:48:57;;;;;;;7.80;3.45;;;;;;;4.06;100.00;94941.81;4993450;28;20065;-72
2022/11/20 00:51:25;;;;;;;6.10;3.13;;;;;;;4.07;100.00;94943.41;4987169;28;20493;-73
2022/11/20 00:53:50;;;;;;;12.50;4.38;;;;;;;3.94;100.00;94945.34;4985319;28;20097;-72
2022/11/20 00:56:18;;;;;;;7.05;3.35;;;;;;;3.99;100.00;94948.00;4986789;28;20038;-72
2022/11/20 00:58:46;;;;;;;7.43;3.03;;;;;;;3.96;100.00;94953.66;4993447;28;20428;-72
2022/11/20 01:01:12;;;;;;;7.72;3.67;;;;;;;3.97;100.00;94954.47;4992444;28;20043;-72
2022/11/20 01:03:40;;;;;;;7.88;3.22;;;;;;;3.98;100.00;94951.63;4992980;28;20045;-72
2022/11/20 01:06:27;;;;;;;6.60;3.38;;;;;;;4.05;100.00;94959.28;4990553;28;20492;-72
2022/11/20 01:08:55;;;;;;;6.15;3.10;;;;;;;4.03;100.00;94952.72;4973797;28;20493;-71
2022/11/20 01:11:27;;;;;;;9.45;3.28;;;;;;;3.91;100.00;94950.25;4989648;28;20515;-72
2022/11/20 01:13:54;;;;;;;8.85;3.17;;;;;;;4.02;100.00;94962.34;4973706;28;20057;-72
2022/11/20 01:16:21;;;;;;;6.60;3.22;;;;;;;3.98;100.00;94961.28;4992235;28;20397;-72
2022/11/20 01:18:49;;;;;;;5.90;2.95;;;;;;;3.88;100.00;94956.72;4992260;28;20042;-72
2022/11/20 01:21:21;;;;;;;7.35;2.92;;;;;;;3.93;100.00;94963.78;4991621;28;20046;-72
2022/11/20 01:23:48;;;;;;;6.68;2.90;;;;;;;4.04;100.00;94964.69;4975018;28;20049;-72
2022/11/20 01:26:34;;;;;;;7.53;3.38;;;;;;;3.95;100.00;94962.53;4974858;28;20039;-72
2022/11/20 01:29:01;;;;;;;6.28;3.15;;;;;;;3.96;100.00;94958.88;4992533;28;20503;-73
2022/11/20 01:31:29;;;;;;;7.45;3.05;;;;;;;3.93;100.00;94969.78;4991782;28;20038;-73
2022/11/20 01:33:57;;;;;;;4.88;2.75;;;;;;;3.93;100.00;94961.19;4991923;28;20065;-73
2022/11/20 01:36:25;;;;;;;4.60;2.50;;;;;;;3.88;100.00;94961.91;4989232;28;20039;-73
2022/11/20 01:38:53;;;;;;;4.90;2.72;;;;;;;3.93;100.00;94964.56;4992272;28;20046;-73
2022/11/20 01:44:04;;;;;;;7.13;3.10;;;;;;;3.92;100.00;94968.22;4972970;28;20053;-73
2022/11/20 01:46:36;;;;;;;5.40;3.08;;;;;;;3.89;100.00;94968.69;4985574;28;20042;-73
2022/11/20 01:49:07;;;;;;;6.82;3.25;;;;;;;3.95;100.00;94972.94;4991255;28;20046;-73
2022/11/20 01:51:45;;;;;;;6.30;2.75;;;;;;;3.92;100.00;94960.41;4991021;28;20066;-73
2022/11/20 01:54:22;;;;;;;6.28;2.80;;;;;;;3.92;100.00;94963.03;4969218;28;20038;-73
2022/11/20 01:56:53;;;;;;;6.38;3.30;;;;;;;3.94;100.00;94963.56;4985629;28;20050;-73
2022/11/20 01:59:22;;;;;;;5.90;3.15;;;;;;;3.93;100.00;94963.78;4991518;28;20051;-73
2022/11/20 02:01:47;;;;;;;6.68;2.90;;;;;;;3.95;100.00;94965.13;4991504;28;20046;-73
2022/11/20 02:04:15;;;;;;;6.10;3.08;;;;;;;3.91;100.00;94961.44;4985320;28;20062;-73
2022/11/20 02:06:59;;;;;;;9.10;3.45;;;;;;;3.96;100.00;94969.28;4975458;28;20393;-74
2022/11/20 02:09:25;;;;;;;6.80;3.10;;;;;;;3.94;100.00;94960.94;4974046;28;20097;-73
2022/11/20 02:11:52;;;;;;;4.80;2.92;;;;;;;3.89;100.00;94958.25;4990613;28;20042;-73
2022/11/20 02:14:18;;;;;;;6.40;2.90;;;;;;;3.93;100.00;94961.97;4988695;28;20041;-73
2022/11/20 02:16:46;;;;;;;8.18;3.40;;;;;;;3.91;100.00;94961.44;4990601;28;20050;-73
2022/11/20 02:19:29;;;;;;;9.10;3.20;;;;;;;3.94;100.00;94958.34;4991015;28;20045;-74
2022/11/20 02:22:17;;;;;;;5.75;3.72;;;;;;;3.89;100.00;94963.47;4990525;28;20045;-73
2022/11/20 02:24:46;;;;;;;5.65;3.22;;;;;;;3.96;100.00;94964.09;4990549;28;20413;-73
2022/11/20 02:27:16;;;;;;;8.93;2.95;;;;;;;3.95;100.00;94965.13;4981754;28;20084;-73
2022/11/20 02:29:51;;;;;;;6.43;3.17;;;;;;;3.96;100.00;94969.28;4991399;28;20052;-73
2022/11/20 02:32:32;;;;;;;7.82;3.20;;;;;;;3.92;100.00;94963.03;4973363;28;20053;-73
2022/11/20 02:34:57;;;;;;;7.30;3.25;;;;;;;3.94;100.00;94971.38;4959878;28;20054;-74
2022/11/20 02:37:30;;;;;;;7.88;3.42;;;;;;;3.91;100.00;94956.22;4989457;28;20039;-74
2022/11/20 02:39:56;;;;;;;6.30;3.00;;;;;;;3.91;100.00;94968.47;4973254;28;20039;-74
2022/11/20 02:42:21;;;;;;;6.32;3.47;;;;;;;3.94;100.00;94966.16;4990445;28;20108;-74
2022/11/20 02:44:47;;;;;;;6.30;3.40;;;;;;;3.89;100.00;94963.47;4988529;28;20049;-74
2022/11/20 02:47:12;;;;;;;6.60;3.22;;;;;;;3.96;100.00;94969.28;4989652;28;20042;-74
2022/11/20 02:49:38;;;;;;;5.90;3.20;;;;;;;3.90;100.00;94965.06;4990061;28;20038;-73
2022/11/20 02:52:03;;;;;;;6.45;3.38;;;;;;;3.84;100.00;94960.81;4970584;28;20080;-73
2022/11/20 02:54:29;;;;;;;9.65;3.80;;;;;;;3.85;100.00;94965.00;4989553;28;20050;-73
2022/11/20 02:56:55;;;;;;;8.48;3.35;;;;;;;3.87;100.00;94970.75;4984010;28;20053;-73
2022/11/20 02:59:20;;;;;;;7.63;3.35;;;;;;;3.93;100.00;94969.78;4990682;28;20076;-73
2022/11/20 03:01:46;;;;;;;5.93;3.42;;;;;;;3.86;100.00;94963.97;4989471;28;20385;-72
2022/11/20 03:04:11;;;;;;;6.00;3.15;;;;;;;3.89;100.00;94968.69;4988985;28;20050;-73
2022/11/20 03:06:37;;;;;;;7.75;3.75;;;;;;;3.85;100.00;94965.00;4977629;28;20439;-73
2022/11/20 03:09:02;;;;;;;7.18;3.75;;;;;;;3.88;100.00;94967.13;4989819;28;20061;-73
2022/11/20 03:11:28;;;;;;;7.07;3.58;;;;;;;3.87;100.00;94970.75;4990047;28;20073;-73
2022/11/20 03:13:53;;;;;;;8.45;3.47;;;;;;;3.89;100.00;94955.66;4990190;28;20246;-73
2022/11/20 03:16:21;;;;;;;5.55;3.00;;;;;;;3.89;100.00;94963.47;4989964;28;20043;-73
2022/11/20 03:18:47;;;;;;;7.88;3.40;;;;;;;3.83;100.00;94958.47;4990516;28;20042;-73
2022/11/20 03:21:14;;;;;;;8.18;3.00;;;;;;;3.87;100.00;94952.53;4989879;28;20707;-73
2022/11/20 03:23:40;;;;;;;8.23;2.97;;;;;;;3.93;100.00;94964.56;4972740;28;20047;-73
2022/11/20 03:26:15;;;;;;;6.70;3.42;;;;;;;3.92;100.00;94957.81;4979736;28;20042;-73
2022/11/20 03:28:45;;;;;;;5.75;3.33;;;;;;;3.94;100.00;94954.97;4978810;28;20038;-73
2022/11/20 03:31:13;;;;;;;9.20;3.40;;;;;;;3.93;100.00;94954.16;4972263;28;20093;-73
2022/11/20 03:33:41;;;;;;;9.48;3.42;;;;;;;3.94;100.00;94955.75;4971123;28;20067;-73
2022/11/20 03:36:10;;;;;;;8.65;3.53;;;;;;;3.98;100.00;94956.06;4954001;28;20548;-73
2022/11/20 03:38:36;;;;;;;6.68;3.58;;;;;;;3.91;100.00;94961.44;4980163;28;20045;-73
2022/11/20 03:41:08;;;;;;;6.22;3.17;;;;;;;3.97;100.00;94960.47;4969621;28;20043;-73
2022/11/20 03:43:34;;;;;;;7.72;3.15;;;;;;;3.94;100.00;94960.94;4985536;28;20459;-73
2022/11/20 03:46:00;;;;;;;6.57;3.35;;;;;;;3.96;100.00;94956.28;4990113;28;20050;-73
2022/11/20 03:48:26;;;;;;;6.25;3.40;;;;;;;3.96;100.00;94960.72;4971989;28;20038;-73
2022/11/20 03:50:53;;;;;;;5.88;3.58;;;;;;;3.91;100.00;94958.84;4990186;28;20527;-73
2022/11/20 03:53:19;;;;;;;5.50;2.92;;;;;;;3.88;100.00;94961.91;4981346;28;20043;-73
2022/11/20 03:55:50;;;;;;;8.85;3.47;;;;;;;3.89;100.00;94963.47;4962255;28;20043;-73
2022/11/20 03:58:15;;;;;;;9.93;3.42;;;;;;;3.94;100.00;94960.94;4985684;28;20101;-73
2022/11/20 04:00:41;;;;;;;6.57;3.50;;;;;;;3.91;100.00;94966.63;4969483;28;20046;-74
2022/11/20 04:03:07;;;;;;;9.18;3.40;;;;;;;3.87;100.00;94964.75;4985977;28;20064;-73
2022/11/20 04:05:33;;;;;;;4.93;3.03;;;;;;;3.89;100.00;94970.50;4962856;28;20457;-73
2022/11/20 04:07:59;;;;;;;6.25;3.38;;;;;;;3.83;100.00;94974.06;4983042;28;20051;-73
2022/11/20 04:10:25;;;;;;;6.18;3.30;;;;;;;3.86;100.00;94974.38;4990378;28;20077;-74
2022/11/20 04:12:51;;;;;;;6.63;3.58;;;;;;;3.93;100.00;94969.00;4993329;28;20042;-75
2022/11/20 04:15:16;;;;;;;5.68;3.30;;;;;;;3.93;100.00;94972.38;4993124;28;20167;-72
2022/11/20 04:17:42;;;;;;;6.63;3.05;;;;;;;3.94;100.00;94965.38;4993869;28;20496;-72
2022/11/20 04:20:08;;;;;;;7.75;3.05;;;;;;;3.85;100.00;94965.00;4992819;28;20057;-72
2022/11/20 04:22:33;;;;;;;7.03;3.22;;;;;;;3.84;100.00;94966.03;4986668;28;20097;-72
2022/11/20 04:24:58;;;;;;;5.00;2.80;;;;;;;3.89;100.00;94968.69;4991255;28;20238;-72
2022/11/20 04:27:24;;;;;;;5.22;2.90;;;;;;;3.83;100.00;94968.88;4992926;28;20379;-71
2022/11/20 04:29:49;;;;;;;8.63;3.20;;;;;;;3.83;100.00;94967.03;4992597;28;20050;-71
2022/11/20 04:32:15;;;;;;;5.55;3.13;;;;;;;3.84;100.00;94966.03;4993130;28;20049;-71
2022/11/20 04:34:40;;;;;;;7.05;3.42;;;;;;;3.88;100.00;94972.34;4992562;28;20054;-72
2022/11/20 04:37:06;;;;;;;11.38;3.05;;;;;;;3.82;100.00;94973.25;4993511;28;20042;-72
2022/11/20 04:39:32;;;;;;;6.15;3.13;;;;;;;3.81;100.00;94966.50;4992765;28;20038;-72
2022/11/20 04:44:41;;;;;;;6.43;3.10;;;;;;;3.75;100.00;94970.03;4986106;28;20125;-72
2022/11/20 04:47:06;;;;;;;6.60;3.60;;;;;;;3.81;100.00;94969.09;4993006;28;20050;-72
2022/11/20 04:49:33;;;;;;;5.38;3.10;;;;;;;3.83;100.00;94969.66;4992865;28;20472;-72
2022/11/20 04:51:59;;;;;;;6.13;3.50;;;;;;;3.86;100.00;94969.16;4992298;28;20042;-72
2022/11/20 04:54:24;;;;;;;5.85;3.50;;;;;;;3.80;100.00;94975.34;4992165;28;20415;-72
2022/11/20 04:56:50;;;;;;;5.82;2.92;;;;;;;3.82;100.00;94973.25;4991146;28;20519;-72
2022/11/20 04:59:16;;;;;;;5.65;3.30;;;;;;;3.80;100.00;94970.13;4993309;28;20050;-72
2022/11/20 05:01:41;;;;;;;6.00;3.20;;;;;;;3.87;100.00;94975.19;4991741;28;20511;-72
2022/11/20 05:04:07;;;;;;;14.48;3.80;;;;;;;3.86;100.00;94969.16;4991977;28;20112;-72
2022/11/20 05:06:33;;;;;;;7.60;3.20;;;;;;;3.94;100.00;94975.78;4987781;28;20049;-72
2022/11/20 05:08:59;;;;;;;5.80;3.28;;;;;;;3.89;100.00;94979.09;4992626;28;20424;-72
2022/11/20 05:11:25;;;;;;;7.72;3.15;;;;;;;3.90;100.00;94970.25;4992760;28;20034;-71
2022/11/20 05:13:51;;;;;;;6.10;3.33;;;;;;;3.87;100.00;94965.53;4992111;28;20055;-71
2022/11/20 05:16:19;;;;;;;8.45;3.05;;;;;;;3.90;100.00;94959.84;4988321;28;20050;-71
2022/11/20 05:18:45;;;;;;;5.88;3.20;;;;;;;3.92;100.00;94955.22;4992426;28;20048;-72
2022/11/20 05:21:12;;;;;;;6.63;3.28;;;;;;;3.87;100.00;94965.53;4992692;28;20522;-72
2022/11/20 05:23:38;;;;;;;5.57;3.35;;;;;;;4.01;100.00;94965.19;4993188;28;20046;-73
2022/11/20 05:26:05;;;;;;;5.45;3.00;;;;;;;3.95;100.00;94967.75;4980233;28;20038;-73
2022/11/20 05:28:31;;;;;;;5.93;3.35;;;;;;;3.92;100.00;94968.22;4992773;28;20085;-73
2022/11/20 05:31:05;;;;;;;6.85;3.35;;;;;;;3.96;100.00;94969.28;4971163;28;20051;-73
2022/11/20 05:33:31;;;;;;;4.30;2.97;;;;;;;3.94;100.00;94966.16;4984220;28;20085;-73
2022/11/20 05:36:00;;;;;;;8.35;3.28;;;;;;;3.90;100.00;94965.06;4991225;28;20046;-73
2022/11/20 05:38:25;;;;;;;7.05;3.53;;;;;;;3.95;100.00;94972.94;4987536;28;20050;-73
2022/11/20 05:40:51;;;;;;;7.07;3.20;;;;;;;3.96;100.00;94969.28;4989556;28;20101;-73
2022/11/20 05:43:16;;;;;;;6.43;3.20;;;;;;;3.91;100.00;94969.25;4987328;28;20518;-73
2022/11/20 05:45:42;;;;;;;4.30;2.70;;;;;;;3.96;100.00;94974.50;4991261;28;20045;-73
2022/11/20 05:48:07;;;;;;;4.35;2.83;;;;;;;3.93;100.00;94980.19;4991703;28;20455;-73
2022/11/20 05:50:33;;;;;;;4.65;3.10;;;;;;;3.86;100.00;94979.56;4977467;28;20070;-73
2022/11/20 05:52:59;;;;;;;5.75;2.75;;;;;;;3.94;100.00;94981.78;4983333;28;20578;-73
2022/11/20 05:55:26;;;;;;;11.00;3.10;;;;;;;3.87;100.00;94983.75;4985728;28;20050;-73
2022/11/20 05:57:53;;;;;;;5.63;2.92;;;;;;;3.85;100.00;94975.41;4991950;28;20039;-73
2022/11/20 06:00:19;;;;;;;5.10;3.00;;;;;;;3.85;100.00;94988.44;4974056;28;20492;-73
2022/11/20 06:02:45;;;;;;;4.55;2.85;;;;;;;3.78;100.00;94977.41;4991192;28;20054;-73
2022/11/20 06:05:10;;;;;;;5.13;2.85;;;;;;;3.71;100.00;94982.00;4989506;28;20113;-73
2022/11/20 06:07:36;;;;;;;5.07;3.15;;;;;;;3.76;100.00;94985.41;4990664;28;20049;-73
2022/11/20 06:10:02;;;;;;;5.75;3.40;;;;;;;3.82;100.00;94981.06;4991835;28;20125;-73
2022/11/20 06:12:27;;;;;;;5.40;2.97;;;;;;;3.78;100.00;94987.81;4990387;28;20048;-73
2022/11/20 06:14:53;;;;;;;5.72;3.20;;;;;;;3.75;100.00;94985.66;4959769;28;20042;-73
2022/11/20 06:17:18;;;;;;;7.13;3.00;;;;;;;3.68;100.00;94982.44;4987781;28;20048;-73
2022/11/20 06:19:44;;;;;;;5.63;3.05;;;;;;;3.64;100.00;94982.91;4971227;28;20674;-73
2022/11/20 06:22:10;;;;;;;6.32;2.95;;;;;;;3.57;100.00;94973.72;4984845;28;20052;-73
2022/11/20 06:24:35;;;;;;;4.40;2.40;;;;;;;3.67;100.00;94976.47;4969866;28;20047;-73
2022/11/20 06:27:01;;;;;;;4.10;2.63;;;;;;;3.53;100.00;94973.38;4984996;28;20424;-73
2022/11/20 06:29:26;;;;;;;5.85;3.00;;;;;;;3.54;100.00;94982.78;4990949;28;20582;-73
2022/11/20 06:31:52;;;;;;;4.05;2.33;;;;;;;3.57;100.00;94971.88;4990243;28;20543;-72
2022/11/20 06:34:17;;;;;;;5.75;2.83;;;;;;;3.61;100.00;94978.19;4989123;28;20046;-72
2022/11/20 06:36:43;;;;;;;4.82;2.70;;;;;;;3.49;100.00;94990.47;4990386;28;20058;-72
2022/11/20 06:39:09;;;;;;;3.78;2.08;;;;;;;3.49;100.00;94990.47;4990848;28;20572;-72
2022/11/20 06:41:34;;;;;;;4.88;2.50;;;;;;;3.51;100.00;94992.88;4990785;28;20039;-72
2022/11/20 06:44:00;;;;;;;3.38;2.35;;;;;;;3.51;100.00;94998.84;4982770;28;20042;-72
2022/11/20 06:46:25;;;;;;;4.55;2.55;;;;;;;3.44;100.00;94999.00;4990460;28;20042;-73
2022/11/20 06:48:51;;;;;;;3.72;2.15;;;;;;;3.56;100.00;95001.56;4991151;28;20042;-70
2022/11/20 06:51:16;;;;;;;3.25;2.13;;;;;;;3.55;100.00;95010.38;4986435;28;20495;-72
2022/11/20 06:53:42;;;;;;;3.45;2.03;;;;;;;3.48;100.00;95007.13;4991057;28;20038;-72
2022/11/20 06:56:08;;;;;;;3.05;2.00;;;;;;;3.46;100.00;95006.56;4984631;28;20404;-72
2022/11/20 06:58:35;;;;;;;3.10;1.90;;;;;;;3.48;100.00;95014.94;4990636;28;20050;-72
2022/11/20 07:01:07;;;;;;;4.65;2.10;;;;;;;3.55;100.00;95010.38;4990155;28;20089;-71
2022/11/20 07:03:33;;;;;;;3.95;2.22;;;;;;;3.56;100.00;95022.38;4990613;28;20042;-72
2022/11/20 07:06:00;;;;;;;4.53;2.20;;;;;;;3.55;100.00;95020.78;4993765;28;20046;-72
2022/11/20 07:08:26;;;;;;;4.00;2.22;;;;;;;3.57;100.00;95013.50;4992930;28;20089;-71
2022/11/20 07:10:52;;;;;;;3.72;2.38;;;;;;;3.58;100.00;95017.69;4989905;28;20042;-72
2022/11/20 07:13:17;;;;;;;4.28;2.42;;;;;;;3.78;100.00;95014.63;4972615;28;20054;-72
2022/11/20 07:15:43;;;;;;;6.05;3.25;;;;;;;3.74;100.00;95021.31;4988308;28;20054;-72
2022/11/20 07:18:08;;;;;;;5.72;2.78;;;;;;;3.73;100.00;95021.56;4990002;28;20523;-69
2022/11/20 07:20:35;;;;;;;6.90;2.45;;;;;;;3.79;100.00;95015.41;4990048;28;20528;-68
2022/11/20 07:23:01;;;;;;;4.72;2.30;;;;;;;3.88;100.00;95019.19;4981287;28;20105;-71
2022/11/20 07:25:27;;;;;;;4.55;2.83;;;;;;;4.06;100.00;95022.56;4958289;28;20042;-68
2022/11/20 07:27:58;;;;;;;4.80;2.80;;;;;;;3.96;100.00;95026.56;4972903;28;20543;-68
2022/11/20 07:30:23;;;;;;;5.78;2.72;;;;;;;3.93;100.00;95029.66;4989549;28;20042;-69
2022/11/20 07:32:53;;;;;;;7.78;3.20;;;;;;;3.90;100.00;95027.53;4986808;28;20125;-68
2022/11/20 07:35:19;;;;;;;6.68;2.80;;;;;;;3.95;100.00;95025.00;4976734;28;20046;-68
2022/11/20 07:37:45;;;;;;;5.32;2.85;;;;;;;3.98;100.00;95029.75;4990173;28;20058;-68
2022/11/20 07:40:12;;;;;;;5.13;2.67;;;;;;;3.96;100.00;95021.38;4989244;28;20073;-69
2022/11/20 07:42:38;;;;;;;4.90;2.83;;;;;;;4.02;100.00;95029.25;4989492;28;20053;-68
2022/11/20 07:45:03;;;;;;;5.75;2.63;;;;;;;4.05;100.00;95028.78;4989183;28;20042;-68
2022/11/20 07:47:35;;;;;;;5.57;2.72;;;;;;;4.07;100.00;95031.94;4998316;28;20057;-69
2022/11/20 07:50:00;;;;;;;3.92;2.55;;;;;;;4.16;100.00;95030.50;4993331;28;20050;-68
2022/11/20 07:52:26;;;;;;;4.78;2.75;;;;;;;4.11;100.00;95027.84;4987628;28;20035;-68
2022/11/20 07:54:51;;;;;;;6.00;2.53;;;;;;;4.08;100.00;95034.31;4988298;28;20415;-69
2022/11/20 07:57:17;;;;;;;3.50;2.30;;;;;;;4.13;100.00;95025.78;4993655;28;20046;-69
2022/11/20 07:59:42;;;;;;;4.00;2.33;;;;;;;4.18;100.00;95025.84;4994461;28;20057;-70
2022/11/20 08:02:10;;;;;;;3.83;2.40;;;;;;;4.16;100.00;95025.28;4994401;28;20065;-69
2022/11/20 08:04:35;;;;;;;5.22;2.40;;;;;;;4.20;100.00;95026.38;4993274;28;20100;-68
2022/11/20 08:07:01;;;;;;;4.95;2.40;;;;;;;4.22;100.00;95033.97;4993791;28;20420;-68
2022/11/20 08:09:26;;;;;;;4.68;2.65;;;;;;;4.27;100.00;95026.22;4994469;28;20046;-69
2022/11/20 08:14:36;;;;;;;4.97;2.53;;;;;;;4.34;100.00;95027.59;4992440;28;20121;-68
2022/11/20 08:17:01;;;;;;;5.22;2.60;;;;;;;4.28;100.00;95028.59;4992450;28;20492;-68
2022/11/20 08:19:27;;;;;;;5.78;2.55;;;;;;;4.33;100.00;95035.66;4993684;28;20484;-68
2022/11/20 08:21:52;;;;;;;6.30;2.85;;;;;;;4.40;100.00;95027.69;4974242;28;20038;-68
2022/11/20 08:24:18;;;;;;;5.07;2.70;;;;;;;4.41;100.00;95026.63;4993850;28;20069;-67
2022/11/20 08:26:43;;;;;;;4.63;2.47;;;;;;;4.43;100.00;95029.81;4990224;28;20045;-67
2022/11/20 08:29:09;;;;;;;3.78;2.20;;;;;;;4.51;100.00;95035.38;4992492;28;20050;-68
2022/11/20 08:31:35;;;;;;;4.30;2.45;;;;;;;4.49;100.00;95034.03;4991899;28;20496;-68
2022/11/20 08:34:20;;;;;;;5.18;2.90;;;;;;;4.51;100.00;95043.19;4991717;28;20524;-68
2022/11/20 08:36:46;;;;;;;6.47;2.50;;;;;;;4.55;100.00;95042.72;4992853;28;20050;-68
2022/11/20 08:39:12;;;;;;;4.07;2.42;;;;;;;4.57;100.00;95043.25;4992119;28;20047;-67
2022/11/20 08:41:37;;;;;;;6.55;2.53;;;;;;;4.63;100.00;95044.91;4993562;28;20676;-68
2022/11/20 08:44:06;;;;;;;5.25;2.63;;;;;;;4.63;100.00;95032.66;4988533;28;20061;-68
2022/11/20 08:46:36;;;;;;;4.57;2.58;;;;;;;4.66;100.00;95041.81;4992835;28;20050;-68
2022/11/20 08:49:02;;;;;;;5.22;2.50;;;;;;;4.69;100.00;95034.28;4996354;28;20112;-70
2022/11/20 08:51:27;;;;;;;5.53;2.58;;;;;;;4.81;100.00;95034.16;4992825;28;20050;-70
2022/11/20 08:53:53;;;;;;;4.18;2.30;;;;;;;4.88;100.00;95026.13;4993109;28;20054;-68
2022/11/20 08:56:19;;;;;;;4.57;2.28;;;;;;;4.84;100.00;95035.47;4989798;28;20046;-68
2022/11/20 08:58:44;;;;;;;5.05;2.30;;;;;;;4.91;100.00;95038.69;4971257;28;20057;-68
2022/11/20 09:01:10;;;;;;;4.53;2.47;;;;;;;4.85;100.00;95034.44;4995223;28;20557;-68
2022/11/20 09:03:36;;;;;;;4.32;2.20;;;;;;;4.88;100.00;95036.56;4993136;28;20050;-68
2022/11/20 09:06:07;;;;;;;2.95;1.80;;;;;;;4.92;100.00;95037.66;4978859;28;20054;-69
2022/11/20 09:08:33;;;;;;;5.25;2.10;;;;;;;4.98;100.00;95026.22;4990599;28;20046;-68
2022/11/20 09:10:59;;;;;;;4.05;1.63;;;;;;;5.05;100.00;95033.09;4992177;28;20050;-68
2022/11/20 09:13:26;;;;;;;4.75;2.03;;;;;;;5.00;100.00;95028.63;4986771;28;20179;-68
2022/11/20 09:16:00;;;;;;;7.32;2.10;;;;;;;4.97;100.00;95029.91;4975695;28;20042;-68
2022/11/20 09:18:26;;;;;;;3.70;1.90;;;;;;;5.01;100.00;95030.19;4992574;28;20065;-68
2022/11/20 09:20:57;;;;;;;3.35;2.00;;;;;;;5.04;100.00;95029.69;4992858;28;20046;-68
2022/11/20 09:23:22;;;;;;;4.07;2.08;;;;;;;5.20;100.00;95028.00;4991488;28;20042;-69
2022/11/20 09:25:48;;;;;;;3.60;2.00;;;;;;;5.12;100.00;95031.09;4986378;28;20038;-68
2022/11/20 09:28:14;;;;;;;2.72;1.70;;;;;;;5.17;100.00;95029.31;4991315;28;20050;-69
2022/11/20 09:30:39;;;;;;;3.83;2.10;;;;;;;5.21;100.00;95032.19;4992224;28;20112;-69
2022/11/20 09:33:06;;;;;;;2.83;1.65;;;;;;;5.23;100.00;95022.31;4991209;28;20045;-69
2022/11/20 09:35:32;;;;;;;3.67;1.90;;;;;;;5.28;100.00;95024.97;4991619;28;20045;-69
2022/11/20 09:37:58;;;;;;;3.83;1.95;;;;;;;5.30;100.00;95017.69;4994533;28;20445;-69
2022/11/20 09:40:29;;;;;;;5.57;2.33;;;;;;;5.38;100.00;95019.81;4994977;28;20100;-68
2022/11/20 09:43:11;;;;;;;2.72;1.85;;;;;;;5.41;100.00;95018.56;4989640;28;20046;-68
2022/11/20 09:45:55;;;;;;;3.53;1.95;;;;;;;5.47;100.00;95011.56;4991417;28;20050;-69
2022/11/20 09:48:41;;;;;;;4.50;2.17;;;;;;;5.50;100.00;95011.06;4991864;28;20050;-69
2022/11/20 09:51:52;;;;;;;2.80;1.70;;;;;;;5.60;100.00;95016.34;4991194;28;20108;-69
2022/11/20 09:54:19;;;;;;;2.47;1.60;;;;;;;5.60;100.00;95011.13;4960400;28;20503;-69
2022/11/20 09:56:56;;;;;;;3.30;1.92;;;;;;;5.80;100.00;95007.09;4978443;28;20057;-69
2022/11/20 09:59:45;;;;;;;2.92;1.77;;;;;;;6.07;100.00;95005.19;4975936;28;20054;-69
2022/11/20 10:02:23;;;;;;;3.72;1.92;;;;;;;6.90;100.00;94995.09;4997307;28;20046;-70
2022/11/20 10:05:17;;;;;;;2.30;1.40;;;;;;;8.00;100.00;95000.09;4984204;28;20050;-69
2022/11/20 10:07:54;;;;;;;1.83;1.50;;;;;;;7.43;100.00;94993.06;5002736;28;20065;-70
2022/11/20 10:10:35;;;;;;;6.20;1.88;;;;;;;7.17;100.00;94999.31;5004062;28;20097;-70
2022/11/20 10:13:30;;;;;;;5.47;1.80;;;;;;;8.19;100.00;94987.19;4983508;28;20051;-68
2022/11/20 10:16:12;;;;;;;4.73;2.03;;;;;;;7.60;100.00;94992.81;4989674;28;20149;-68
2022/11/20 10:18:44;;;;;;;3.08;1.92;;;;;;;7.16;100.00;94997.75;4992435;28;20058;-68
2022/11/20 10:21:15;;;;;;;2.95;1.60;;;;;;;7.92;100.00;94988.31;4991121;28;20046;-68
2022/11/20 10:24:01;;;;;;;2.80;1.70;;;;;;;8.55;100.00;94989.72;4991693;28;20074;-68
2022/11/20 10:26:42;;;;;;;11.48;2.00;;;;;;;7.55;100.00;94978.91;4986614;28;20051;-67
2022/11/20 10:29:07;;;;;;;2.47;1.70;;;;;;;9.09;94.00;94988.91;5000693;28;20577;-68
2022/11/20 10:31:37;;;;;;;2.88;1.70;;;;;;;8.80;91.96;94986.22;4992107;28;20053;-67
2022/11/20 10:34:17;;;;;;;3.97;1.55;;;;;;;8.55;94.30;94994.97;4998660;28;20093;-67
2022/11/20 10:36:49;;;;;;;2.15;1.40;;;;;;;8.36;100.00;94977.22;4993877;28;20114;-68
2022/11/20 10:39:30;;;;;;;4.60;1.65;;;;;;;8.62;95.96;94990.22;4992230;28;20046;-68
2022/11/20 10:41:56;;;;;;;3.72;1.45;;;;;;;8.02;100.00;94998.78;4993220;28;20497;-68
2022/11/20 10:47:15;;;;;;;3.10;1.52;;;;;;;9.25;92.85;94986.22;4992601;28;20415;-68
2022/11/20 10:49:44;;;;;;;2.05;1.30;;;;;;;8.64;94.90;94988.13;4991631;28;20485;-68
2022/11/20 10:52:28;;;;;;;4.05;1.52;;;;;;;9.78;81.53;94983.69;4984873;28;20074;-68
2022/11/20 10:54:53;;;;;;;3.43;1.53;;;;;;;9.16;85.36;94984.16;4972758;28;20073;-72
2022/11/20 10:57:48;;;;;;;3.13;1.40;;;;;;;7.95;93.31;94972.06;4997856;28;20283;-68
2022/11/20 11:00:16;;;;;;;;;;;;;;;7.76;98.76;94993.56;4988597;28;20042;-69
2022/11/20 11:02:47;;;;;;;3.53;1.38;;;;;;;7.62;100.00;94984.69;4992423;28;19929;-69
2022/11/20 11:05:26;;;;;;;2.35;1.42;;;;;;;7.36;100.00;94984.69;4971523;28;20045;-69
2022/11/20 11:07:57;;;;;;;2.45;1.65;;;;;;;7.27;100.00;94970.56;4995330;28;20050;-69
2022/11/20 11:10:32;;;;;;;2.53;1.60;;;;;;;7.17;100.00;94983.59;4974590;28;20038;-68
2022/11/20 11:12:58;;;;;;;2.72;1.60;;;;;;;7.17;100.00;94983.59;4992954;28;20692;-68
2022/11/20 11:15:39;;;;;;;2.78;1.60;;;;;;;6.93;100.00;94977.03;4989735;28;20042;-68
2022/11/20 11:18:08;;;;;;;2.55;1.55;;;;;;;6.75;100.00;94978.31;4994168;28;20054;-68
2022/11/20 11:20:34;;;;;;;3.47;1.80;;;;;;;6.73;100.00;94980.38;4994071;28;20046;-69
2022/11/20 11:23:00;;;;;;;4.68;2.00;;;;;;;6.81;100.00;94971.28;4993344;28;20054;-70
2022/11/20 11:25:35;;;;;;;3.38;2.00;;;;;;;6.80;100.00;94966.31;4992887;28;20038;-70
2022/11/20 11:28:25;;;;;;;3.55;1.90;;;;;;;6.86;100.00;94973.09;4993472;28;20093;-70
2022/11/20 11:30:51;;;;;;;5.82;2.22;;;;;;;6.86;100.00;94962.66;4993386;28;20042;-70
2022/11/20 11:33:29;;;;;;;4.72;2.30;;;;;;;6.85;100.00;94967.09;4996307;28;20038;-72
2022/11/20 11:35:59;;;;;;;4.00;2.15;;;;;;;6.84;100.00;94956.88;4997671;28;20046;-70
2022/11/20 11:38:34;;;;;;;5.13;2.47;;;;;;;6.62;100.00;94963.09;4998330;28;20050;-69
2022/11/20 11:41:01;;;;;;;5.85;2.35;;;;;;;6.67;100.00;94960.50;4995474;28;20047;-71
2022/11/20 11:46:36;;;;;;;4.60;2.15;;;;;;;8.33;98.70;94941.00;4996183;28;20050;-70
2022/11/20 11:49:04;;;;;;;5.88;2.13;;;;;;;7.48;100.00;94952.22;5007601;28;20122;-71
2022/11/20 11:51:41;;;;;;;5.93;2.20;;;;;;;7.24;100.00;94957.97;5015062;28;20042;-68
2022/11/20 11:54:28;;;;;;;6.95;2.42;;;;;;;7.22;100.00;94942.53;5017571;28;20041;-70